sensor_id;sensor_type;location;lat;lon;timestamp;pressure;altitude;pressure_sealevel;temperature;humidity
45403;BME280;47427;51.976;5.326;2023-04-05T00:01:11;102473.00;;;3.45;82.16
45403;BME280;47427;51.976;5.326;2023-04-05T00:04:35;102449.06;;;3.27;82.35
45403;BME280;47427;51.976;5.326;2023-04-05T00:08:01;102479.28;;;3.37;82.65
45403;BME280;47427;51.976;5.326;2023-04-05T00:11:23;102462.72;;;3.24;82.66
45403;BME280;47427;51.976;5.326;2023-04-05T00:14:46;102454.16;;;3.15;83.00
45403;BME280;47427;51.976;5.326;2023-04-05T00:18:07;102465.97;;;3.22;83.29
45403;BME280;47427;51.976;5.326;2023-04-05T00:21:38;102462.84;;;3.16;83.54
45403;BME280;47427;51.976;5.326;2023-04-05T00:25:05;102451.34;;;3.02;83.79
45403;BME280;47427;51.976;5.326;2023-04-05T00:28:26;102451.88;;;2.98;83.99
45403;BME280;47427;51.976;5.326;2023-04-05T00:31:49;102462.47;;;3.01;84.15
45403;BME280;47427;51.976;5.326;2023-04-05T00:35:12;102445.94;;;2.89;84.40
45403;BME280;47427;51.976;5.326;2023-04-05T00:38:33;102445.03;;;2.78;84.80
45403;BME280;47427;51.976;5.326;2023-04-05T00:41:56;102448.50;;;2.78;84.89
45403;BME280;47427;51.976;5.326;2023-04-05T00:45:17;102452.94;;;2.79;85.38
45403;BME280;47427;51.976;5.326;2023-04-05T00:48:40;102442.69;;;2.71;85.68
45403;BME280;47427;51.976;5.326;2023-04-05T00:52:03;102429.09;;;2.63;85.47
45403;BME280;47427;51.976;5.326;2023-04-05T00:55:26;102442.06;;;2.63;85.31
45403;BME280;47427;51.976;5.326;2023-04-05T00:58:49;102445.03;;;2.57;85.98
45403;BME280;47427;51.976;5.326;2023-04-05T01:02:21;102442.34;;;2.56;86.06
45403;BME280;47427;51.976;5.326;2023-04-05T01:06:03;102435.88;;;2.51;85.98
45403;BME280;47427;51.976;5.326;2023-04-05T01:12:51;102422.53;;;2.36;86.30
45403;BME280;47427;51.976;5.326;2023-04-05T01:16:14;102386.94;;;2.13;86.14
45403;BME280;47427;51.976;5.326;2023-04-05T01:19:38;102438.19;;;2.37;85.84
45403;BME280;47427;51.976;5.326;2023-04-05T01:23:36;102426.53;;;2.22;86.27
45403;BME280;47427;51.976;5.326;2023-04-05T01:27:16;102420.69;;;2.14;86.14
45403;BME280;47427;51.976;5.326;2023-04-05T01:30:41;102420.28;;;2.10;86.10
45403;BME280;47427;51.976;5.326;2023-04-05T01:34:41;102419.00;;;2.05;86.57
45403;BME280;47427;51.976;5.326;2023-04-05T01:38:11;102401.00;;;1.96;86.31
45403;BME280;47427;51.976;5.326;2023-04-05T01:41:39;102417.59;;;1.98;86.59
45403;BME280;47427;51.976;5.326;2023-04-05T01:45:01;102385.44;;;1.76;86.14
45403;BME280;47427;51.976;5.326;2023-04-05T01:48:26;102393.47;;;1.79;86.50
45403;BME280;47427;51.976;5.326;2023-04-05T01:51:48;102398.50;;;1.77;86.99
45403;BME280;47427;51.976;5.326;2023-04-05T01:55:10;102417.91;;;1.82;87.20
45403;BME280;47427;51.976;5.326;2023-04-05T01:58:33;102410.81;;;1.80;86.87
45403;BME280;47427;51.976;5.326;2023-04-05T02:01:56;102412.88;;;1.73;86.91
45403;BME280;47427;51.976;5.326;2023-04-05T02:05:19;102407.44;;;1.70;87.83
45403;BME280;47427;51.976;5.326;2023-04-05T02:08:41;102383.88;;;1.57;87.86
45403;BME280;47427;51.976;5.326;2023-04-05T02:12:04;102394.34;;;1.59;87.78
45403;BME280;47427;51.976;5.326;2023-04-05T02:15:27;102400.03;;;1.55;87.50
45403;BME280;47427;51.976;5.326;2023-04-05T02:18:49;102332.94;;;1.17;88.17
45403;BME280;47427;51.976;5.326;2023-04-05T02:22:11;102399.72;;;1.51;88.36
45403;BME280;47427;51.976;5.326;2023-04-05T02:25:34;102395.84;;;1.46;88.28
45403;BME280;47427;51.976;5.326;2023-04-05T02:28:56;102397.13;;;1.41;87.86
45403;BME280;47427;51.976;5.326;2023-04-05T02:32:18;102396.22;;;1.41;87.91
45403;BME280;47427;51.976;5.326;2023-04-05T02:35:41;102371.34;;;1.22;88.48
45403;BME280;47427;51.976;5.326;2023-04-05T02:39:03;102389.47;;;1.33;88.50
45403;BME280;47427;51.976;5.326;2023-04-05T02:42:26;102364.84;;;1.17;88.69
45403;BME280;47427;51.976;5.326;2023-04-05T02:45:49;102396.66;;;1.26;89.21
45403;BME280;47427;51.976;5.326;2023-04-05T02:49:13;102382.31;;;1.20;88.82
45403;BME280;47427;51.976;5.326;2023-04-05T02:52:36;102383.06;;;1.19;88.85
45403;BME280;47427;51.976;5.326;2023-04-05T02:55:58;102341.22;;;0.94;89.29
45403;BME280;47427;51.976;5.326;2023-04-05T02:59:22;102362.97;;;1.06;88.96
45403;BME280;47427;51.976;5.326;2023-04-05T03:03:04;102372.97;;;1.12;89.31
45403;BME280;47427;51.976;5.326;2023-04-05T03:06:29;102274.16;;;0.56;89.18
45403;BME280;47427;51.976;5.326;2023-04-05T03:09:54;102346.78;;;0.98;89.75
45403;BME280;47427;51.976;5.326;2023-04-05T03:13:17;102342.63;;;0.90;89.85
45403;BME280;47427;51.976;5.326;2023-04-05T03:16:41;102334.88;;;0.90;89.59
45403;BME280;47427;51.976;5.326;2023-04-05T03:20:13;102315.91;;;0.71;89.46
45403;BME280;47427;51.976;5.326;2023-04-05T03:23:36;102313.06;;;0.68;89.68
45403;BME280;47427;51.976;5.326;2023-04-05T03:27:02;102337.28;;;0.78;90.62
45403;BME280;47427;51.976;5.326;2023-04-05T03:30:28;102360.94;;;0.83;89.92
45403;BME280;47427;51.976;5.326;2023-04-05T03:33:55;102352.03;;;0.79;90.29
45403;BME280;47427;51.976;5.326;2023-04-05T03:37:20;102344.34;;;0.71;90.21
45403;BME280;47427;51.976;5.326;2023-04-05T03:40:55;102353.75;;;0.70;90.15
45403;BME280;47427;51.976;5.326;2023-04-05T03:44:17;102352.03;;;0.60;90.46
45403;BME280;47427;51.976;5.326;2023-04-05T03:47:40;102344.00;;;0.57;90.73
45403;BME280;47427;51.976;5.326;2023-04-05T03:51:03;102304.38;;;0.38;90.50
45403;BME280;47427;51.976;5.326;2023-04-05T03:54:24;102331.25;;;0.40;90.38
45403;BME280;47427;51.976;5.326;2023-04-05T03:57:52;102347.31;;;0.46;90.39
45403;BME280;47427;51.976;5.326;2023-04-05T04:01:23;102339.50;;;0.36;90.68
45403;BME280;47427;51.976;5.326;2023-04-05T04:04:44;102320.56;;;0.27;90.71
45403;BME280;47427;51.976;5.326;2023-04-05T04:08:06;102334.03;;;0.33;90.83
45403;BME280;47427;51.976;5.326;2023-04-05T04:11:30;102343.09;;;0.38;90.84
45403;BME280;47427;51.976;5.326;2023-04-05T04:14:56;102315.78;;;0.21;90.58
45403;BME280;47427;51.976;5.326;2023-04-05T04:18:34;102347.72;;;0.32;90.96
45403;BME280;47427;51.976;5.326;2023-04-05T04:22:19;102330.47;;;0.22;91.03
45403;BME280;47427;51.976;5.326;2023-04-05T04:26:13;102326.22;;;0.22;91.32
45403;BME280;47427;51.976;5.326;2023-04-05T04:30:07;102334.75;;;0.21;91.14
45403;BME280;47427;51.976;5.326;2023-04-05T04:33:48;102319.34;;;0.13;91.35
45403;BME280;47427;51.976;5.326;2023-04-05T04:37:30;102350.22;;;0.21;90.87
45403;BME280;47427;51.976;5.326;2023-04-05T04:41:13;102338.72;;;0.18;91.51
45403;BME280;47427;51.976;5.326;2023-04-05T04:44:56;102315.00;;;0.03;91.63
45403;BME280;47427;51.976;5.326;2023-04-05T04:48:36;102338.28;;;0.13;91.47
45403;BME280;47427;51.976;5.326;2023-04-05T04:52:16;102341.22;;;0.08;92.04
45403;BME280;47427;51.976;5.326;2023-04-05T04:55:41;102319.72;;;-0.02;91.93
45403;BME280;47427;51.976;5.326;2023-04-05T04:59:02;102347.28;;;0.08;92.05
45403;BME280;47427;51.976;5.326;2023-04-05T05:02:26;102246.41;;;-0.41;92.63
45403;BME280;47427;51.976;5.326;2023-04-05T05:05:50;102329.56;;;0.03;92.71
45403;BME280;47427;51.976;5.326;2023-04-05T05:09:19;102332.56;;;0.07;92.68
45403;BME280;47427;51.976;5.326;2023-04-05T05:12:48;102331.94;;;0.10;92.50
45403;BME280;47427;51.976;5.326;2023-04-05T05:16:11;102333.25;;;0.15;92.59
45403;BME280;47427;51.976;5.326;2023-04-05T05:19:34;102334.47;;;0.18;92.94
45403;BME280;47427;51.976;5.326;2023-04-05T05:22:58;102330.34;;;0.20;92.62
45403;BME280;47427;51.976;5.326;2023-04-05T05:26:21;102337.88;;;0.28;92.79
45403;BME280;47427;51.976;5.326;2023-04-05T05:29:45;102323.31;;;0.28;92.35
45403;BME280;47427;51.976;5.326;2023-04-05T05:33:06;102292.91;;;0.15;92.02
45403;BME280;47427;51.976;5.326;2023-04-05T05:36:29;102307.03;;;0.29;92.10
45403;BME280;47427;51.976;5.326;2023-04-05T05:39:52;102328.72;;;0.50;91.74
45403;BME280;47427;51.976;5.326;2023-04-05T05:43:14;102304.94;;;0.44;92.21
45403;BME280;47427;51.976;5.326;2023-04-05T05:46:37;102331.78;;;0.65;91.76
45403;BME280;47427;51.976;5.326;2023-04-05T05:50:18;102338.94;;;0.78;91.12
45403;BME280;47427;51.976;5.326;2023-04-05T05:53:43;102339.78;;;0.87;91.64
45403;BME280;47427;51.976;5.326;2023-04-05T05:57:06;102317.59;;;0.89;91.20
45403;BME280;47427;51.976;5.326;2023-04-05T06:00:27;102338.19;;;1.08;90.49
45403;BME280;47427;51.976;5.326;2023-04-05T06:03:50;102316.59;;;1.07;90.37
45403;BME280;47427;51.976;5.326;2023-04-05T06:07:12;102345.78;;;1.36;90.80
45403;BME280;47427;51.976;5.326;2023-04-05T06:10:35;102332.22;;;1.38;89.79
45403;BME280;47427;51.976;5.326;2023-04-05T06:13:59;102344.13;;;1.57;90.19
45403;BME280;47427;51.976;5.326;2023-04-05T06:17:20;102314.38;;;1.51;89.52
45403;BME280;47427;51.976;5.326;2023-04-05T06:20:43;102338.75;;;1.84;89.24
45403;BME280;47427;51.976;5.326;2023-04-05T06:24:06;102315.59;;;1.86;88.84
45403;BME280;47427;51.976;5.326;2023-04-05T06:27:27;102343.00;;;2.35;88.14
45403;BME280;47427;51.976;5.326;2023-04-05T06:30:50;102342.72;;;4.05;83.73
45403;BME280;47427;51.976;5.326;2023-04-05T06:34:13;102334.13;;;5.47;78.39
45403;BME280;47427;51.976;5.326;2023-04-05T06:37:36;102333.34;;;6.63;74.19
45403;BME280;47427;51.976;5.326;2023-04-05T06:40:58;102324.50;;;7.56;70.06
45403;BME280;47427;51.976;5.326;2023-04-05T06:44:20;102336.44;;;8.23;66.92
45403;BME280;47427;51.976;5.326;2023-04-05T06:47:43;102332.84;;;9.12;64.26
45403;BME280;47427;51.976;5.326;2023-04-05T06:51:24;102315.69;;;9.99;61.56
45403;BME280;47427;51.976;5.326;2023-04-05T06:54:48;102327.03;;;10.67;57.78
45403;BME280;47427;51.976;5.326;2023-04-05T06:58:10;102309.09;;;11.12;56.32
45403;BME280;47427;51.976;5.326;2023-04-05T07:01:32;102314.00;;;12.00;54.07
45403;BME280;47427;51.976;5.326;2023-04-05T07:04:55;102317.63;;;12.65;51.22
45403;BME280;47427;51.976;5.326;2023-04-05T07:08:22;102310.50;;;13.06;48.99
45403;BME280;47427;51.976;5.326;2023-04-05T07:11:44;102290.16;;;13.71;47.67
45403;BME280;47427;51.976;5.326;2023-04-05T07:15:07;102295.53;;;14.49;44.66
45403;BME280;47427;51.976;5.326;2023-04-05T07:18:29;102307.13;;;15.08;42.60
45403;BME280;47427;51.976;5.326;2023-04-05T07:21:52;102308.31;;;15.77;41.99
45403;BME280;47427;51.976;5.326;2023-04-05T07:25:15;102313.66;;;16.43;39.80
45403;BME280;47427;51.976;5.326;2023-04-05T07:28:37;102306.16;;;16.98;39.53
45403;BME280;47427;51.976;5.326;2023-04-05T07:31:59;102293.09;;;17.47;37.53
45403;BME280;47427;51.976;5.326;2023-04-05T07:39:04;102295.19;;;19.14;34.76
45403;BME280;47427;51.976;5.326;2023-04-05T07:42:27;102302.13;;;19.68;33.04
45403;BME280;47427;51.976;5.326;2023-04-05T07:45:48;102306.91;;;20.00;32.74
45403;BME280;47427;51.976;5.326;2023-04-05T07:49:11;102286.34;;;20.83;32.12
45403;BME280;47427;51.976;5.326;2023-04-05T07:52:34;102303.72;;;21.68;30.79
45403;BME280;47427;51.976;5.326;2023-04-05T07:55:56;102295.84;;;22.47;29.16
45403;BME280;47427;51.976;5.326;2023-04-05T07:59:37;102291.38;;;22.94;27.42
45403;BME280;47427;51.976;5.326;2023-04-05T08:03:00;102279.75;;;23.10;27.32
45403;BME280;47427;51.976;5.326;2023-04-05T08:06:23;102255.66;;;23.01;26.42
45403;BME280;47427;51.976;5.326;2023-04-05T08:09:51;102276.78;;;23.72;25.10
45403;BME280;47427;51.976;5.326;2023-04-05T08:13:18;102285.31;;;24.38;24.46
45403;BME280;47427;51.976;5.326;2023-04-05T08:16:42;102297.38;;;24.88;24.71
45403;BME280;47427;51.976;5.326;2023-04-05T08:20:05;102289.16;;;25.05;23.40
45403;BME280;47427;51.976;5.326;2023-04-05T08:23:28;102282.75;;;25.90;22.59
45403;BME280;47427;51.976;5.326;2023-04-05T08:26:51;102295.38;;;26.42;21.94
45403;BME280;47427;51.976;5.326;2023-04-05T08:30:13;102297.06;;;26.49;21.92
45403;BME280;47427;51.976;5.326;2023-04-05T08:33:54;102293.00;;;26.22;21.77
45403;BME280;47427;51.976;5.326;2023-04-05T08:37:17;102283.13;;;26.26;21.06
45403;BME280;47427;51.976;5.326;2023-04-05T08:40:42;102277.94;;;27.13;20.75
45403;BME280;47427;51.976;5.326;2023-04-05T08:44:05;102286.53;;;27.75;20.07
45403;BME280;47427;51.976;5.326;2023-04-05T08:47:57;102284.78;;;28.13;19.33
45403;BME280;47427;51.976;5.326;2023-04-05T08:51:23;102274.28;;;28.72;18.30
45403;BME280;47427;51.976;5.326;2023-04-05T08:54:47;102267.16;;;29.01;18.87
45403;BME280;47427;51.976;5.326;2023-04-05T08:58:13;102285.22;;;28.99;18.31
45403;BME280;47427;51.976;5.326;2023-04-05T09:01:43;102278.03;;;27.94;18.06
45403;BME280;47427;51.976;5.326;2023-04-05T09:05:08;102267.44;;;28.23;18.59
45403;BME280;47427;51.976;5.326;2023-04-05T09:08:32;102285.97;;;29.37;18.07
45403;BME280;47427;51.976;5.326;2023-04-05T09:11:55;102275.50;;;29.56;16.16
45403;BME280;47427;51.976;5.326;2023-04-05T09:15:18;102269.84;;;30.48;16.47
45403;BME280;47427;51.976;5.326;2023-04-05T09:18:43;102275.63;;;30.37;16.96
45403;BME280;47427;51.976;5.326;2023-04-05T09:22:07;102268.03;;;31.24;16.00
45403;BME280;47427;51.976;5.326;2023-04-05T09:25:39;102272.03;;;30.88;15.41
45403;BME280;47427;51.976;5.326;2023-04-05T09:29:03;102267.06;;;31.01;15.00
45403;BME280;47427;51.976;5.326;2023-04-05T09:32:25;102265.97;;;31.54;14.24
45403;BME280;47427;51.976;5.326;2023-04-05T09:35:50;102260.53;;;30.57;14.63
45403;BME280;47427;51.976;5.326;2023-04-05T09:39:13;102265.03;;;30.81;14.85
45403;BME280;47427;51.976;5.326;2023-04-05T09:42:44;102259.00;;;31.70;15.44
45403;BME280;47427;51.976;5.326;2023-04-05T09:46:31;102238.06;;;33.20;14.18
45403;BME280;47427;51.976;5.326;2023-04-05T09:49:54;102261.38;;;33.26;13.38
45403;BME280;47427;51.976;5.326;2023-04-05T09:53:17;102252.97;;;33.50;12.68
45403;BME280;47427;51.976;5.326;2023-04-05T09:56:54;102257.13;;;32.16;13.60
45403;BME280;47427;51.976;5.326;2023-04-05T10:00:19;102254.22;;;32.64;12.39
45403;BME280;47427;51.976;5.326;2023-04-05T10:04:01;102254.59;;;33.16;12.39
45403;BME280;47427;51.976;5.326;2023-04-05T10:07:24;102240.94;;;33.36;11.57
45403;BME280;47427;51.976;5.326;2023-04-05T10:10:46;102244.69;;;33.72;11.74
45403;BME280;47427;51.976;5.326;2023-04-05T10:14:11;102241.28;;;34.74;11.24
45403;BME280;47427;51.976;5.326;2023-04-05T10:18:02;102222.91;;;35.44;11.51
45403;BME280;47427;51.976;5.326;2023-04-05T10:21:34;102221.50;;;35.85;11.27
45403;BME280;47427;51.976;5.326;2023-04-05T10:25:06;102196.53;;;33.36;11.81
45403;BME280;47427;51.976;5.326;2023-04-05T10:28:33;102217.72;;;32.90;11.79
45403;BME280;47427;51.976;5.326;2023-04-05T10:32:08;102207.75;;;33.47;11.61
45403;BME280;47427;51.976;5.326;2023-04-05T10:39:32;102208.44;;;35.42;11.39
45403;BME280;47427;51.976;5.326;2023-04-05T10:42:54;102204.41;;;36.27;10.46
45403;BME280;47427;51.976;5.326;2023-04-05T10:46:19;102196.44;;;34.29;10.79
45403;BME280;47427;51.976;5.326;2023-04-05T10:49:49;102193.94;;;34.07;11.16
45403;BME280;47427;51.976;5.326;2023-04-05T10:53:15;102194.38;;;33.98;12.26
45403;BME280;47427;51.976;5.326;2023-04-05T10:56:38;102197.31;;;34.47;11.06
45403;BME280;47427;51.976;5.326;2023-04-05T11:00:02;102204.47;;;34.83;11.18
45403;BME280;47427;51.976;5.326;2023-04-05T11:07:17;102190.94;;;33.94;11.94
45403;BME280;47427;51.976;5.326;2023-04-05T11:10:40;102194.75;;;36.06;10.81
45403;BME280;47427;51.976;5.326;2023-04-05T11:14:26;102188.25;;;34.29;11.12
45403;BME280;47427;51.976;5.326;2023-04-05T11:18:20;102175.16;;;34.36;11.44
45403;BME280;47427;51.976;5.326;2023-04-05T11:21:46;102179.50;;;35.24;10.63
45403;BME280;47427;51.976;5.326;2023-04-05T11:25:21;102175.94;;;36.31;10.72
45403;BME280;47427;51.976;5.326;2023-04-05T11:28:46;102176.09;;;36.73;9.66
45403;BME280;47427;51.976;5.326;2023-04-05T11:32:11;102174.28;;;35.19;10.14
45403;BME280;47427;51.976;5.326;2023-04-05T11:35:34;102171.59;;;34.86;10.92
45403;BME280;47427;51.976;5.326;2023-04-05T11:42:44;102154.72;;;34.95;10.44
45403;BME280;47427;51.976;5.326;2023-04-05T11:46:06;102146.97;;;35.03;10.33
45403;BME280;47427;51.976;5.326;2023-04-05T11:49:28;102150.78;;;34.67;10.82
45403;BME280;47427;51.976;5.326;2023-04-05T11:56:31;102139.59;;;35.37;10.53
45403;BME280;47427;51.976;5.326;2023-04-05T11:59:54;102138.06;;;34.84;10.12
45403;BME280;47427;51.976;5.326;2023-04-05T12:03:16;102138.19;;;35.62;10.24
45403;BME280;47427;51.976;5.326;2023-04-05T12:06:39;102136.59;;;36.34;10.23
45403;BME280;47427;51.976;5.326;2023-04-05T12:10:07;102132.63;;;36.68;9.83
45403;BME280;47427;51.976;5.326;2023-04-05T12:13:32;102131.22;;;36.02;9.92
45403;BME280;47427;51.976;5.326;2023-04-05T12:16:55;102114.19;;;34.71;9.96
45403;BME280;47427;51.976;5.326;2023-04-05T12:20:21;102110.91;;;33.79;10.39
45403;BME280;47427;51.976;5.326;2023-04-05T12:23:45;102109.56;;;33.52;10.78
45403;BME280;47427;51.976;5.326;2023-04-05T12:27:27;102123.09;;;34.42;10.92
45403;BME280;47427;51.976;5.326;2023-04-05T12:30:54;102121.19;;;34.77;10.18
45403;BME280;47427;51.976;5.326;2023-04-05T12:34:23;102113.84;;;35.73;9.72
45403;BME280;47427;51.976;5.326;2023-04-05T12:37:50;102113.16;;;33.16;10.88
45403;BME280;47427;51.976;5.326;2023-04-05T12:41:11;102098.31;;;34.46;10.43
45403;BME280;47427;51.976;5.326;2023-04-05T12:44:34;102113.06;;;36.01;10.58
45403;BME280;47427;51.976;5.326;2023-04-05T12:47:58;102106.25;;;36.67;9.99
45403;BME280;47427;51.976;5.326;2023-04-05T12:51:20;102095.72;;;37.44;9.70
45403;BME280;47427;51.976;5.326;2023-04-05T12:54:53;102095.41;;;36.80;9.21
45403;BME280;47427;51.976;5.326;2023-04-05T12:58:16;102094.69;;;36.19;9.34
45403;BME280;47427;51.976;5.326;2023-04-05T13:01:38;102086.81;;;36.29;9.97
45403;BME280;47427;51.976;5.326;2023-04-05T13:05:00;102073.81;;;36.32;8.93
45403;BME280;47427;51.976;5.326;2023-04-05T13:08:24;102074.81;;;33.76;10.76
45403;BME280;47427;51.976;5.326;2023-04-05T13:11:47;102075.78;;;34.43;10.30
45403;BME280;47427;51.976;5.326;2023-04-05T13:15:09;102049.06;;;34.34;10.47
45403;BME280;47427;51.976;5.326;2023-04-05T13:18:31;102051.66;;;34.68;10.23
45403;BME280;47427;51.976;5.326;2023-04-05T13:21:57;102055.72;;;34.93;9.93
45403;BME280;47427;51.976;5.326;2023-04-05T13:25:19;102047.97;;;32.95;10.10
45403;BME280;47427;51.976;5.326;2023-04-05T13:28:41;102049.84;;;32.36;11.40
45403;BME280;47427;51.976;5.326;2023-04-05T13:32:04;102038.31;;;33.26;11.33
45403;BME280;47427;51.976;5.326;2023-04-05T13:35:25;102042.44;;;33.16;11.48
45403;BME280;47427;51.976;5.326;2023-04-05T13:38:48;102034.72;;;33.43;11.18
45403;BME280;47427;51.976;5.326;2023-04-05T13:42:11;102041.22;;;33.40;11.56
45403;BME280;47427;51.976;5.326;2023-04-05T13:45:33;102037.00;;;33.16;10.55
45403;BME280;47427;51.976;5.326;2023-04-05T13:48:56;102022.50;;;32.39;11.54
45403;BME280;47427;51.976;5.326;2023-04-05T13:52:19;102021.41;;;31.84;11.58
45403;BME280;47427;51.976;5.326;2023-04-05T13:55:40;102031.28;;;33.03;12.30
45403;BME280;47427;51.976;5.326;2023-04-05T13:59:03;102025.03;;;32.05;11.98
45403;BME280;47427;51.976;5.326;2023-04-05T14:02:44;102007.31;;;30.18;13.22
45403;BME280;47427;51.976;5.326;2023-04-05T14:06:05;101997.63;;;30.60;13.08
45403;BME280;47427;51.976;5.326;2023-04-05T14:09:28;102004.09;;;30.79;12.20
45403;BME280;47427;51.976;5.326;2023-04-05T14:12:50;101994.97;;;30.58;13.71
45403;BME280;47427;51.976;5.326;2023-04-05T14:16:13;101998.19;;;31.14;13.25
45403;BME280;47427;51.976;5.326;2023-04-05T14:19:39;101996.00;;;30.32;13.35
45403;BME280;47427;51.976;5.326;2023-04-05T14:23:00;101990.72;;;29.79;13.28
45403;BME280;47427;51.976;5.326;2023-04-05T14:26:27;101987.72;;;30.12;13.83
45403;BME280;47427;51.976;5.326;2023-04-05T14:29:48;101994.16;;;31.02;13.06
45403;BME280;47427;51.976;5.326;2023-04-05T14:33:13;101985.84;;;29.37;13.94
45403;BME280;47427;51.976;5.326;2023-04-05T14:36:37;101988.09;;;29.51;13.41
45403;BME280;47427;51.976;5.326;2023-04-05T14:39:59;101966.69;;;29.95;14.13
45403;BME280;47427;51.976;5.326;2023-04-05T14:43:22;101960.81;;;30.07;13.21
45403;BME280;47427;51.976;5.326;2023-04-05T14:46:47;101973.25;;;29.63;13.95
45403;BME280;47427;51.976;5.326;2023-04-05T14:50:10;101970.41;;;28.86;14.30
45403;BME280;47427;51.976;5.326;2023-04-05T14:53:33;101966.44;;;28.40;15.04
45403;BME280;47427;51.976;5.326;2023-04-05T14:56:54;101959.97;;;28.75;14.67
45403;BME280;47427;51.976;5.326;2023-04-05T15:00:37;101955.25;;;28.22;15.29
45403;BME280;47427;51.976;5.326;2023-04-05T15:04:19;101946.53;;;28.14;14.88
45403;BME280;47427;51.976;5.326;2023-04-05T15:07:42;101946.50;;;28.73;15.62
45403;BME280;47427;51.976;5.326;2023-04-05T15:11:04;101932.91;;;28.19;14.17
45403;BME280;47427;51.976;5.326;2023-04-05T15:14:26;101940.22;;;27.82;14.58
45403;BME280;47427;51.976;5.326;2023-04-05T15:17:49;101933.59;;;27.94;14.82
45403;BME280;47427;51.976;5.326;2023-04-05T15:21:12;101921.22;;;27.87;16.36
45403;BME280;47427;51.976;5.326;2023-04-05T15:24:36;101908.81;;;27.47;14.73
45403;BME280;47427;51.976;5.326;2023-04-05T15:27:59;101927.16;;;26.21;15.88
45403;BME280;47427;51.976;5.326;2023-04-05T15:31:23;101923.81;;;26.09;15.91
45403;BME280;47427;51.976;5.326;2023-04-05T15:34:45;101921.66;;;26.66;16.60
45403;BME280;47427;51.976;5.326;2023-04-05T15:38:27;101923.44;;;24.80;16.42
45403;BME280;47427;51.976;5.326;2023-04-05T15:41:50;101911.78;;;25.36;16.33
45403;BME280;47427;51.976;5.326;2023-04-05T15:45:13;101914.00;;;26.46;16.09
45403;BME280;47427;51.976;5.326;2023-04-05T15:48:34;101913.53;;;26.69;15.70
45403;BME280;47427;51.976;5.326;2023-04-05T15:51:57;101890.09;;;25.93;16.11
45403;BME280;47427;51.976;5.326;2023-04-05T15:55:21;101902.44;;;25.05;16.84
45403;BME280;47427;51.976;5.326;2023-04-05T15:58:43;101878.69;;;25.34;17.29
45403;BME280;47427;51.976;5.326;2023-04-05T16:02:06;101887.97;;;25.64;16.04
45403;BME280;47427;51.976;5.326;2023-04-05T16:05:27;101908.75;;;25.54;16.58
45403;BME280;47427;51.976;5.326;2023-04-05T16:08:50;101905.13;;;25.05;17.22
45403;BME280;47427;51.976;5.326;2023-04-05T16:12:32;101891.91;;;24.34;17.33
45403;BME280;47427;51.976;5.326;2023-04-05T16:15:54;101896.38;;;23.59;17.37
45403;BME280;47427;51.976;5.326;2023-04-05T16:19:17;101889.06;;;23.78;18.16
45403;BME280;47427;51.976;5.326;2023-04-05T16:22:39;101883.44;;;23.17;17.21
45403;BME280;47427;51.976;5.326;2023-04-05T16:26:21;101897.38;;;22.46;18.05
45403;BME280;47427;51.976;5.326;2023-04-05T16:29:42;101891.53;;;23.12;18.40
45403;BME280;47427;51.976;5.326;2023-04-05T16:33:04;101894.59;;;23.62;17.87
45403;BME280;47427;51.976;5.326;2023-04-05T16:36:27;101877.91;;;23.35;17.75
45403;BME280;47427;51.976;5.326;2023-04-05T16:39:50;101898.50;;;23.28;18.64
45403;BME280;47427;51.976;5.326;2023-04-05T16:43:11;101895.84;;;23.27;19.43
45403;BME280;47427;51.976;5.326;2023-04-05T16:46:34;101893.06;;;22.14;19.22
45403;BME280;47427;51.976;5.326;2023-04-05T16:49:56;101875.50;;;21.46;19.81
45403;BME280;47427;51.976;5.326;2023-04-05T16:53:19;101889.75;;;21.11;19.91
45403;BME280;47427;51.976;5.326;2023-04-05T16:56:41;101876.41;;;20.83;20.49
45403;BME280;47427;51.976;5.326;2023-04-05T17:00:04;101882.66;;;20.85;20.37
45403;BME280;47427;51.976;5.326;2023-04-05T17:03:27;101868.13;;;19.73;21.21
45403;BME280;47427;51.976;5.326;2023-04-05T17:07:09;101882.94;;;19.31;22.62
45403;BME280;47427;51.976;5.326;2023-04-05T17:10:33;101885.63;;;18.36;22.86
45403;BME280;47427;51.976;5.326;2023-04-05T17:13:56;101848.63;;;17.16;23.86
45403;BME280;47427;51.976;5.326;2023-04-05T17:17:19;101821.03;;;16.02;25.10
45403;BME280;47427;51.976;5.326;2023-04-05T17:20:42;101874.63;;;15.12;26.57
45403;BME280;47427;51.976;5.326;2023-04-05T17:24:05;101886.16;;;14.81;27.92
45403;BME280;47427;51.976;5.326;2023-04-05T17:27:27;101870.38;;;14.50;27.73
45403;BME280;47427;51.976;5.326;2023-04-05T17:30:49;101858.84;;;13.83;28.91
45403;BME280;47427;51.976;5.326;2023-04-05T17:34:12;101882.41;;;13.49;29.18
45403;BME280;47427;51.976;5.326;2023-04-05T17:37:35;101871.44;;;13.08;29.75
45403;BME280;47427;51.976;5.326;2023-04-05T17:40:57;101884.19;;;12.94;30.54
45403;BME280;47427;51.976;5.326;2023-04-05T17:44:40;101871.13;;;12.71;31.20
45403;BME280;47427;51.976;5.326;2023-04-05T17:48:05;101883.81;;;12.57;31.26
45403;BME280;47427;51.976;5.326;2023-04-05T17:51:28;101882.66;;;12.49;33.06
45403;BME280;47427;51.976;5.326;2023-04-05T17:54:51;101807.13;;;11.97;32.52
45403;BME280;47427;51.976;5.326;2023-04-05T17:58:13;101885.25;;;12.24;33.08
45403;BME280;47427;51.976;5.326;2023-04-05T18:01:35;101878.56;;;12.08;33.53
45403;BME280;47427;51.976;5.326;2023-04-05T18:04:58;101885.41;;;11.82;34.51
45403;BME280;47427;51.976;5.326;2023-04-05T18:08:22;101889.59;;;11.77;35.39
45403;BME280;47427;51.976;5.326;2023-04-05T18:11:44;101889.13;;;11.64;36.08
45403;BME280;47427;51.976;5.326;2023-04-05T18:15:07;101896.38;;;11.47;35.40
45403;BME280;47427;51.976;5.326;2023-04-05T18:18:28;101900.50;;;11.41;36.08
45403;BME280;47427;51.976;5.326;2023-04-05T18:22:10;101884.00;;;11.22;37.26
45403;BME280;47427;51.976;5.326;2023-04-05T18:25:31;101899.78;;;11.01;37.32